Lake Deneys Yacht Club

Telephone
(27) 016371 1393
Cell
079 472 0093 (Office)
082 570 3367 (Manager)
        Please note that cell-phone reception is not very good
FAX
(27) 016371 2343
E-Mail
Club Manager: manager@ldyc.co.za
Office: ldyc@telkomsa.net
Postal Address
PO Box40, Deneysville, 1932

LDYC Logo.jpg (6009 bytes)


• Home • Up • Commodores Cup • TuneUp Race • RTIR 2013 • Ladies RTIR • Single Handed RTIR •
 

Class Results

horizontal rule

Lake Deneys Yacht CLUB - 3rd February 2013

Lake Deneys Yacht Club
Round The Island Race 2013
Provisional Results - Sorted by position on handicap (v7)
                       
Sail No. Class Boat Name Skipper H/C Fleet Start Diff Finish Elapsed Corrected HC Pos Line Pos Class Pos
25 Viking 22 Twin Keel PHENDUKA S Kuhn 0.590 2 00:10:00 04:20:11 04:10:11 02:27:36 1 251 1
69523 Mirror Audio Network Graham Clifford 0.631 4 00:20:00 04:44:16 04:24:16 02:46:45 2 274 1
382 Gypsey Wandering Jemina Francois Viljoen 0.696 4 00:20:00 04:33:34 04:13:34 02:56:28 3 257 1
94 H23 Aquafox Michaela Robinson 0.790 2 00:10:00 03:53:40 03:43:40 02:56:41 4 166 1
25 Mistral Bulb Mc Lallie K Magill 0.775 2 00:10:00 03:58:56 03:48:56 02:57:25 5 191 1
521 Finn Fancy Free Gavin Smith 0.830 4 00:20:00 03:54:06 03:34:06 02:57:42 6 118 1
1501 Argie 15 Dust-a-gain Hennie Olivier 0.710 4 00:20:00 04:31:29 04:11:29 02:58:33 7 254 1
148 H23 Moonbeam Richard Stewart 0.790 2 00:10:00 03:56:20 03:46:20 02:58:48 8 174 2
61 Buccaneer La Bianca Jan  Laubscher 0.785 2 00:10:00 03:57:51 03:47:51 02:58:51 9 183 1
69877 Laser Hers Christine de la Harpe 0.820 4 00:20:00 03:58:18 03:38:18 02:59:00 10 142 1
100 H23 Freya Alan  Foben 0.790 2 00:10:00 03:56:39 03:46:39 02:59:03 11 177 3
66 Mistral Fin Passat Alexander Van Zyl 0.825 2 00:10:00 03:49:10 03:39:10 03:00:48 12 146 1
152 H23 Cuxhaven Robert Attwell 0.790 2 00:10:00 03:58:54 03:48:54 03:00:49 13 189 4
159 H23 Oran Mor Kathryn Robinson 0.790 2 00:10:00 03:59:59 03:49:59 03:01:41 14 200 5
26 H23 Aquarius Greg Wallace 0.790 2 00:10:00 04:00:09 03:50:09 03:01:49 15 202 6
112 H23 Lise Jane II Arthur Thomalla 0.790 2 00:10:00 04:00:29 03:50:29 03:02:04 16 205 7
748 Hunter Sheba Alan Blair 0.800 2 00:10:00 03:59:58 03:49:58 03:03:58 17 199 1
122 H23 Raine Deon J Mostert 0.790 2 00:10:00 04:03:36 03:53:36 03:04:32 18 217 8
109 Mistral Fin Noumea Deon Van Der Walt 0.825 2 00:10:00 03:53:51 03:43:51 03:04:40 19 168 2
925 F1 Jolly Roger Chris Duff 0.860 2 00:10:00 03:46:20 03:36:20 03:06:02 20 126 1
1061 Sprog Saraband Alvin Barnett 0.793 4 00:20:00 04:15:10 03:55:10 03:06:29 21 224 1
158 Theta 26 Cruising Audacious Harry Hall 0.780 2 00:10:00 04:09:16 03:59:16 03:06:37 22 235 1
56 Stadt 29 Steel Merlin Peter Van De Water 0.700 2 00:10:00 04:38:02 04:28:02 03:07:37 23 282 1
769 Hunter Fundi Jaco Swart 0.800 2 00:10:00 04:04:46 03:54:46 03:07:48 24 223 2
93 H23 Cest La Vie Michael Wright 0.790 2 00:10:00 04:07:44 03:57:44 03:07:48 25 230 9
7929 Dart 2up Genoa Block & Tackle Vernon Brown 1.080 5 00:20:00 03:14:03 02:54:03 03:07:54 26 9 1
3709 Paper Tiger Mayiwe Bruce  Edward 0.900 5 00:20:00 03:48:47 03:28:47 03:07:54 27 102 1
13 L26 Street Car Rob Willcox 0.915 2 00:10:00 03:35:26 03:25:26 03:07:58 28 89 1
8 L26 Windways Phil Bennett 0.915 2 00:10:00 03:35:29 03:25:29 03:08:01 29 90 2
47 Mistral Fin Rhesus Alpha Peter Lambert 0.825 2 00:10:00 03:58:14 03:48:14 03:08:17 30 186 3
60666 H14 SlartiBartFast Gary Hubach 0.973 5 00:20:00 03:33:42 03:13:42 03:08:22 31 41 1
926 F1 Finster Francis  Gibbons 0.860 2 00:10:00 03:49:31 03:39:31 03:08:47 32 148 2
59 Mistral Fin Chihili David John Hodgson 0.825 2 00:10:00 03:58:55 03:48:55 03:08:51 33 190 4
26 Stadt 23 Jem Johnny Smit 0.875 2 00:10:00 03:46:03 03:36:03 03:09:02 34 124 1
2 F180 Fat Ass Don Tait 0.870 2 00:10:00 03:47:38 03:37:38 03:09:20 35 135 1
33 Charger 33 Cayachtic Dennis Lapham 0.920 2 00:10:00 03:35:52 03:25:52 03:09:23 36 92 1
113 Mistral Fin Liza Angelique Verheij 0.825 2 00:10:00 03:59:57 03:49:57 03:09:42 37 198 5
68 Stadt 23 Stadtisfaction Nichol Hakkesteeg 0.875 2 00:10:00 03:47:05 03:37:05 03:09:56 38 127 2
32 Stadt 23 Top Notch Hannes Van Der Walt 0.875 2 00:10:00 03:47:26 03:37:26 03:10:15 39 130 3
2205 Stadt 34 Tall Masthead Rig (Icebreaker) Icebreaker David Lister 0.930 2 00:10:00 03:35:14 03:25:14 03:10:52 40 87 1
5 F180 Bound Too Barry Ogilvie 0.870 2 00:10:00 03:49:47 03:39:47 03:11:12 41 150 2
86 L26 Carousel Dave Long 0.915 2 00:10:00 03:38:59 03:28:59 03:11:13 42 103 3
8 Kid Enola Gay Lucy Sanders 0.815 2 00:10:00 04:04:40 03:54:40 03:11:15 43 222 1
913 F1 Invincible Richard Bremner 0.860 2 00:10:00 03:52:27 03:42:27 03:11:18 44 160 3
60057 H14 Adrenalin Douglas White 0.973 5 00:20:00 03:36:46 03:16:46 03:11:21 45 48 2
1119 J22 Hay J Trevor Hulleman 0.915 2 00:10:00 03:39:33 03:29:33 03:11:44 46 106 1
197 J22 Kamakazee Express Andrew Thornburn 0.915 2 00:10:00 03:39:57 03:29:57 03:12:06 47 107 2
918 F1 Radio Holland Chris Phillips 0.860 2 00:10:00 03:53:38 03:43:38 03:12:19 48 165 4
181 J22 Hang Ten Neil Armstrong 0.915 2 00:10:00 03:40:14 03:30:14 03:12:21 49 108 3
1483 Stadt 22 Cayo Coco Antonio De Carvalho 0.850 2 00:10:00 03:56:26 03:46:26 03:12:28 50 176 1
155 J22 Shambles Shellee  Nel 0.915 2 00:10:00 03:40:28 03:30:28 03:12:34 51 110 4
94 Theta 26 Cruising Baltic Sea Brian Lazarus 0.780 2 00:10:00 04:16:56 04:06:56 03:12:36 52 247 2
174 H23 zUZY q Chris van Der Walt 0.790 2 00:10:00 04:13:55 04:03:55 03:12:41 53 243 10
88 H23 Shenanigans Bruce Hepburn 0.790 2 00:10:00 04:14:18 04:04:18 03:12:59 54 244 11
8 H23 Gitan Wynand Grove 0.790 2 00:10:00 04:14:18 04:04:18 03:12:59 55 245 12
927 F1 Casimozo Steve Niccol 0.860 2 00:10:00 03:54:28 03:44:28 03:13:02 56 171 5
444 Hunter LDYC Club Hunter John Brownhill 0.800 2 00:10:00 04:11:20 04:01:20 03:13:04 57 239 3
1402 29er Funtastic Rob  Tarboton 1.000 4 00:20:00 03:33:05 03:13:05 03:13:05 58 36 1
4 F180 Moonshine Express James Turner 0.870 2 00:10:00 03:53:33 03:43:33 03:14:29 59 164 3
85 L26 Bladerunner Peter Lee 0.915 2 00:10:00 03:42:47 03:32:47 03:14:41 60 114 4
6 Nimbus Moving on Anthony Smith 0.860 2 00:10:00 03:56:24 03:46:24 03:14:42 61 175 1
84 L26 Noble Steed Johan Slaghuis 0.915 2 00:10:00 03:43:06 03:33:06 03:14:59 62 115 5
764 J22 J'Y Suis Brent Roy Haddock 0.915 2 00:10:00 03:43:51 03:33:51 03:15:40 63 117 5
228 First 8 Sailquip Quantum Calvin Nicholl 0.970 2 00:10:00 03:32:01 03:22:01 03:15:57 64 72 1
1277 J22 Jonah J Stephan Martinusia 0.915 2 00:10:00 03:45:00 03:35:00 03:16:43 65 121 6
119 H23 Palakida John Alexander Kock 0.790 2 00:10:00 04:19:06 04:09:06 03:16:47 66 250 13
2671 GP14 Batfish Bryan Pratt 0.767 4 00:20:00 04:36:34 04:16:34 03:16:47 67 260 1
1175 Astove 31 ( Highlander) Highlander Hubl Von Maltke 0.860 2 00:10:00 03:58:57 03:48:57 03:16:53 68 193 1
2723 J24 J Girl Daddy Mokhele 0.905 2 00:10:00 03:47:36 03:37:36 03:16:55 69 134 1
17 L26 LA DIQUE Justin Clark 0.915 2 00:10:00 03:45:22 03:35:22 03:17:03 70 123 6
1197 Stadt 34 Standard Fractional Moonshiner Tommy Redmond 0.930 2 00:10:00 03:41:59 03:31:59 03:17:08 71 113 1
1759 Muira With Furler Kinetics Eleanor  Spies 0.825 2 00:10:00 04:09:12 03:59:12 03:17:20 72 234 1
908 F1 Alpine Star Ron Downs 0.860 2 00:10:00 03:59:39 03:49:39 03:17:29 73 196 6
40 L34 Blue Mermaid Rob Truscott 0.920 2 00:10:00 03:44:45 03:34:45 03:17:34 74 119 1
1078 Impact Pancake Derick Nortje 0.915 2 00:10:00 03:46:15 03:36:15 03:17:52 75 125 1
723 Hunter Day Breeze Johan Saunders 0.800 2 00:10:00 04:17:21 04:07:21 03:17:52 76 249 4
920 F1 Dreamtime Otto Tanczos 0.860 2 00:10:00 04:00:25 03:50:25 03:18:09 77 204 7
115 Mistral Fin Rumbo Juan Carlos Herrero 0.825 2 00:10:00 04:10:13 04:00:13 03:18:10 78 238 6
201 J27 Pink Cadilac Randolph Verheij 0.990 2 00:10:00 03:30:13 03:20:13 03:18:12 79 62 1
16 Nimbus with furler Against The Wind Leo Gitelson 0.840 2 00:10:00 04:06:07 03:56:07 03:18:20 80 226 1
1117 J22 Da J Elliot James 0.915 2 00:10:00 03:47:09 03:37:09 03:18:41 81 128 7
5 Keren Overdraft Jordan Gianoppolous 0.835 2 00:10:00 04:08:00 03:58:00 03:18:43 82 231 1
1067 J22 Cell C Acton Plunkett 0.915 2 00:10:00 03:47:26 03:37:26 03:18:57 83 131 8
55 L26 Philanderer Yolanda Van Der Vyver 0.915 2 00:10:00 03:47:42 03:37:42 03:19:11 84 137 7
594 Sweetpea Std Drago Ernest Langhoff 0.905 2 00:10:00 03:50:06 03:40:06 03:19:11 85 152 1
54 Stadt 23 Angelique Tyronne Morris 0.875 2 00:10:00 03:57:42 03:47:42 03:19:14 86 182 4
62 Stadt 23 Skye Eric Geyer 0.875 2 00:10:00 03:57:56 03:47:56 03:19:26 87 185 5
172 J22 Jalapeno Pierre Van Rensburg 0.915 2 00:10:00 03:48:00 03:38:00 03:19:28 88 140 9
2899 Farr 38 Soteria Luke Wagner 0.980 2 00:10:00 03:33:42 03:23:42 03:19:37 89 81 1
23 Mistral Bulb Sunchaser Francois Spies 0.775 2 00:10:00 04:28:01 04:18:01 03:19:57 90 262 2
2194 Dart 2up Genoa Eyetower Brent Trower 1.080 5 00:20:00 03:25:20 03:05:20 03:20:05 91 17 2
90 H23 GREYLAG Allan Rosenburg 0.790 2 00:10:00 04:23:23 04:13:23 03:20:10 92 256 14
10 Ladd 27 Jack The Ladd Stuart McDougall 0.990 2 00:10:00 03:32:14 03:22:14 03:20:12 93 73 1
30 Stadt 23 Flashpoint Austin Daly 0.875 2 00:10:00 03:58:52 03:48:52 03:20:15 94 187 6
63 Stadt 23 FFWD Quitin Jacobs 0.875 2 00:10:00 03:58:53 03:48:53 03:20:16 95 188 7
3600 Tri - Three Wishes Three Wishes Michael Robinson 0.880 3 00:10:00 03:57:36 03:47:36 03:20:17 96 181 1
29 L26 Photo Finish Mervyn Peterson 0.915 2 00:10:00 03:49:04 03:39:04 03:20:26 97 144 8
110 Mistral Fin Silver Sovereign Peter Mann 0.825 2 00:10:00 04:13:00 04:03:00 03:20:28 98 242 7
55 Stadt 23 Upstadt Michael Gradwell 0.875 2 00:10:00 03:59:22 03:49:22 03:20:41 99 195 8
26 Nimbus Gandalf Allan Lewthwaite 0.860 2 00:10:00 04:03:32 03:53:32 03:20:50 100 216 2
3772 Dart 2up Genoa Slippery When Wet Bob Kleynjan 1.080 5 00:20:00 03:26:09 03:06:09 03:20:58 101 19 3
1073 Beneteau 35 Mysti Blue Anton Nel 0.915 2 00:10:00 03:49:41 03:39:41 03:21:00 102 149 1
75 Mistral Bulb Joy Ride Trish Coninx 0.775 2 00:10:00 04:29:29 04:19:29 03:21:05 103 264 3
195 J27 On The Rampage Nigel Sutherland 0.990 2 00:10:00 03:33:15 03:23:15 03:21:13 104 77 2
76 Stadt 23 Riostadt Roy Downes 0.875 2 00:10:00 04:00:01 03:50:01 03:21:15 105 201 9
60308 H14 N/A John Churchill 0.973 5 00:20:00 03:47:19 03:27:19 03:21:36 106 99 3
16 Stadt 22 Crusader I Kobus van BiljonGreen 0.850 2 00:10:00 04:07:16 03:57:16 03:21:40 107 229 2
7 Stadt 34 Short Masthead Rig Gelderland Helgard Potgieter 0.910 2 00:10:00 03:51:42 03:41:42 03:21:44 108 159 1
279 Flamenca Racing Da Ba Dee Adrian Badenhorst 0.835 2 00:10:00 04:11:50 04:01:50 03:21:55 109 240 1
1922 Dart S/H No Name LAETITIA MIENIE 1.080 5 00:20:00 03:27:03 03:07:03 03:21:56 110 20 1
23 Rebel Dinghy The Soggy Bottom David Curtiss 0.868 4 00:20:00 04:12:55 03:52:55 03:22:10 111 213 1
158 J22 Jumping Jive Glenn Magill 0.915 2 00:10:00 03:50:58 03:40:58 03:22:11 112 155 10
106 Theta 26 Cruising Pegasus Daniel van der Heever 0.780 2 00:10:00 04:29:50 04:19:50 03:22:40 113 265 3
56 Stadt 23 Swift Tern Alain David 0.875 2 00:10:00 04:01:46 03:51:46 03:22:47 114 212 10
1951 Halcat 2up Hillbilly Roger John Hill 0.996 5 00:20:00 03:43:40 03:23:40 03:22:52 115 80 1
3755 Tosca 36 Cracker Jack Jonathan Campbell 0.930 2 00:10:00 03:48:10 03:38:10 03:22:53 116 141 1
4066 Jaguar Windfall Ian Laurenson 0.760 2 00:10:00 04:38:23 04:28:23 03:23:58 117 283 1
57 Stadt 23 Peas & Carrots Grant Mitchell 0.875 2 00:10:00 04:03:26 03:53:26 03:24:15 118 215 11
1 L26 Mwera Gordon Abbey 0.915 2 00:10:00 03:53:22 03:43:22 03:24:22 119 162 9
127 H23 Baloo Hendrik Du Preez 0.790 2 00:10:00 04:28:51 04:18:51 03:24:29 120 263 15
28 Stadt 23 Porcupine & Pricklypear Shamus Flanagan 0.875 2 00:10:00 04:03:47 03:53:47 03:24:33 121 218 12
2766 Flying 15 Theriando Ian Otto 0.870 2 00:10:00 04:05:39 03:55:39 03:25:00 122 225 1
1912 Weta WETA Mathew Inglis 1.003 5 00:20:00 03:44:27 03:24:27 03:25:05 123 84 1
5366 Dart 2up Genoa N/A Bradley Levin 1.080 5 00:20:00 03:30:00 03:10:00 03:25:07 124 26 4
8 505 D Flying Freddie Hans Rogotzki 1.030 4 00:20:00 03:39:10 03:19:10 03:25:08 125 57 1
15 Stadt 23 Gusto Neil De Lange 0.875 2 00:10:00 04:04:31 03:54:31 03:25:12 126 221 13
213 Hunter Clockwork Mark Green 0.800 2 00:10:00 04:26:33 04:16:33 03:25:14 127 259 5
75844 H16 Zulu Pierre De Villiers 1.114 5 00:20:00 03:24:21 03:04:21 03:25:16 128 15 1
75412 H16 No Name Anton Tjabring 1.114 5 00:20:00 03:24:30 03:04:30 03:25:26 129 16 2
1170 Stadt 34 Standard Fractional Sea Quill Douglas Reeve 0.930 2 00:10:00 03:51:18 03:41:18 03:25:48 130 156 2
5365 Dart 2up Genoa No Name Mattew Clark 1.080 5 00:20:00 03:30:41 03:10:41 03:25:51 131 29 5
5 Pacer 27 Stinger Sean Stuttaford 1.080 2 00:10:00 03:20:58 03:10:58 03:26:14 132 30 1
36 Petersen 33 Barefoot Dancer Neil Hamilton 0.920 2 00:10:00 03:54:31 03:44:31 03:26:33 133 172 1
9871 Jaguar Spirit Of The Wind Cornelius Van Niekerk 0.760 2 00:10:00 04:42:11 04:32:11 03:26:51 134 287 2
2929 Atlantis 36 Fairwind Matthew Kapp 0.900 2 00:10:00 03:59:55 03:49:55 03:26:55 135 197 1
90968 H16 No Name Mike Heraldt 1.114 5 00:20:00 03:25:55 03:05:55 03:27:01 136 18 3
59 Stadt 23 Synergy Peter Gage 0.875 2 00:10:00 04:06:45 03:56:45 03:27:09 137 228 14
4 Soling Solution Billy Van Rooyen 0.910 2 00:10:00 03:57:55 03:47:55 03:27:24 138 184 1
11 Pacer 27 Unruly Iain Gibson 1.080 2 00:10:00 03:22:04 03:12:04 03:27:25 139 33 2
110 Mistral Fin Mislaid Kevin Mulligan 0.825 2 00:10:00 04:21:31 04:11:31 03:27:30 140 255 8
240 Theta 26 Cruising Metemi Jacob Nandé 0.780 2 00:10:00 04:36:06 04:26:06 03:27:33 141 277 4
2216 Stadt 34 Standard Fractional Lyla Hedley Grant Manicom 0.930 2 00:10:00 03:53:21 03:43:21 03:27:42 142 161 3
2284 Vivacity 20 Twin Dream One Ian Harvey 0.620 2 00:10:00 05:45:10 05:35:10 03:27:48 143 299 1
63 Mistral Bulb Seeadler Robert Foster 0.775 2 00:10:00 04:38:25 04:28:25 03:28:01 144 284 4
6 L26 Six Cents Theo Oosthuizen 0.915 2 00:10:00 03:57:24 03:47:24 03:28:04 145 180 10
1025 Atlantis 36 Windsong Lothar  H.A. ZIEHM 0.900 2 00:10:00 04:01:31 03:51:31 03:28:21 146 210 2
103 H23 Adventurer Luke Quinn 0.790 2 00:10:00 04:33:46 04:23:46 03:28:22 147 273 16
657 Halcat 1up This Way Up Gavin Tintinger 0.996 5 00:20:00 03:49:22 03:29:22 03:28:33 148 105 1
197 Flamenca Std Navigator Simon Kelly 0.790 2 00:10:00 04:34:46 04:24:46 03:29:09 149 275 1
88 L26 Free Wheeler Derrick Willcock 0.915 2 00:10:00 03:58:56 03:48:56 03:29:28 150 192 11
22 H34 Freedom Child Nicolas Mouton 0.875 2 00:10:00 04:09:53 03:59:53 03:29:53 151 236 1
8 Stadt 23 Aurora Shawn Conrad Nicolopolous 0.875 2 00:10:00 04:10:08 04:00:08 03:30:07 152 237 15
1283 Astove 30 Tanga James Oosthuizen 0.840 2 00:10:00 04:20:12 04:10:12 03:30:10 153 252 1
116 H23 Merryhull Peter de Vries 0.790 2 00:10:00 04:36:16 04:26:16 03:30:21 154 278 17
1434 Atlantis 36 Morning Cloud Johan Horn 0.900 2 00:10:00 04:03:55 03:53:55 03:30:31 155 219 3
112612 H16 No Name Andrew Boyd 1.114 5 00:20:00 03:29:14 03:09:14 03:30:42 156 25 4
43117 H14 Turbo HOBIE "T" Willie van den Berg 1.062 5 00:20:00 03:39:00 03:19:00 03:31:15 157 56 1
162 H23 No Name Stephan Nawn 0.790 2 00:10:00 04:37:47 04:27:47 03:31:32 158 280 18
482 Hobie Wild Cat No Name Charles Girard 1.275 5 00:20:00 03:06:04 02:46:04 03:31:44 159 4 1
5 L26 Sandpiper Kevan Jones 0.915 2 00:10:00 04:01:25 03:51:25 03:31:44 160 207 12
1118 J22 Shamwari Hendrik Johannes Sa 0.915 2 00:10:00 04:01:26 03:51:26 03:31:45 161 208 11
21 L26 Tatoosh Unknown 0.915 2 00:10:00 04:01:29 03:51:29 03:31:48 162 209 13
60525 H14 CLUB14 Hartmut Ilgner 0.973 5 00:20:00 03:57:49 03:37:49 03:31:49 163 139 4
17 Multi 23 Spin Scr Faster Jonathan Crawford 1.312 3 00:10:00 02:51:27 02:41:27 03:31:52 164 3 1
111347 H16 Hobie One Canoby Charles Johnstone 1.114 5 00:20:00 03:30:19 03:10:19 03:31:55 165 27 5
30 H16 Fox-U-2 Derek Van Heerden 1.114 5 00:20:00 03:30:19 03:10:19 03:31:55 166 28 6
4904 P16 DINDINGWE John Nigel Tarboton 1.080 5 00:20:00 03:36:38 03:16:38 03:32:17 167 47 1
777 Corrida 36 Wild Rose Malcolm Wright 0.890 2 00:10:00 04:09:08 03:59:08 03:32:49 168 233 1
2645 Hobie Tiger Microtronix Michael Goodyear 1.275 5 00:20:00 03:07:24 02:47:24 03:33:26 169 5 1
700 JS9000 Agattu Gregg Hurter 1.065 1 00:00:00 03:20:44 03:20:44 03:33:46 170 64 1
76965 H16 Moonbeam Peter van de Meer 1.114 5 00:20:00 03:32:13 03:12:13 03:34:01 171 34 7
776 Hunter Amooti Eugene Fourie 0.800 2 00:10:00 04:37:47 04:27:47 03:34:13 172 281 6
7951 Dart 2up Genoa Lloyd Lloyd Dickinson 1.080 5 00:20:00 03:38:51 03:18:51 03:34:40 173 55 6
43108 H14 Turbo Seasharp (C#) Andy Fourie 1.062 5 00:20:00 03:42:31 03:22:31 03:34:59 174 74 2
90725 H16 No Name Angus Hudson 1.114 5 00:20:00 03:33:10 03:13:10 03:35:05 175 37 8
5176 Dart 2up Genoa Eega Beava Ryan Dyer 1.080 5 00:20:00 03:39:20 03:19:20 03:35:12 176 60 7
1196 Stadt 34 Standard Fractional Indulgence hubert Saayman 0.930 2 00:10:00 04:01:24 03:51:24 03:35:12 177 206 4
109598 H16 No Name Kevin Fourie 1.114 5 00:20:00 03:33:19 03:13:19 03:35:15 178 38 9
81 Mistral Fin Goofus Wayne Estment 0.825 2 00:10:00 04:31:00 04:21:00 03:35:19 179 269 9
108652 H16 Spin No Name Colin Norton 1.147 5 00:20:00 03:27:52 03:07:52 03:35:24 180 22 1
1835 Stadt 34 Standard Fractional Reference Point Craig Mackenzie 0.930 2 00:10:00 04:01:45 03:51:45 03:35:31 181 211 5
11 Nimbus with furler Kamoya Stefan Potgieter 0.840 2 00:10:00 04:26:40 04:16:40 03:35:36 182 261 2
75234 H16 Hagler Pieter Adriaan Johannes Cromhout 1.114 5 00:20:00 03:33:41 03:13:41 03:35:39 183 40 10
90517 H16 No Name Greg Hoets 1.114 5 00:20:00 03:33:57 03:13:57 03:35:57 184 42 11
761 Farr 38(40) Mod Madame Pazzazz Roy Spurdle 1.035 1 00:00:00 03:28:44 03:28:44 03:36:02 185 101 1
990 Beneteau 35 Coral Palm Kevin Lee Payne 0.915 2 00:10:00 04:06:17 03:56:17 03:36:11 186 227 2
10 Pacer 27 Music Sabago Guy Nottingham 1.080 2 00:10:00 03:30:20 03:20:20 03:36:21 187 63 3
79 Theta 26 Cruising Swiftsure Pieter Swanepoel 0.780 2 00:10:00 04:47:28 04:37:28 03:36:25 188 290 5
2416 505 D COERUN Coert deVries 1.030 4 00:20:00 03:50:16 03:30:16 03:36:34 189 109 2
1719 Halcat 2up Gogga Christo Kruger 0.996 5 00:20:00 03:57:32 03:37:32 03:36:41 190 133 2
15 Pacer 27 Skwert II Derek Robinson 1.080 1 00:00:00 03:20:50 03:20:50 03:36:54 191 65 4
2877 Dart 2up Genoa Maestro John Francois Gersteling 1.080 5 00:20:00 03:40:59 03:20:59 03:36:58 192 66 8
1724 L36 Still Cruising Eddie Visser 0.930 2 00:10:00 04:03:25 03:53:25 03:37:04 193 214 1
90 Theta 26 Racing Blanc De Noir Paul  Van Heerden 0.825 2 00:10:00 04:33:14 04:23:14 03:37:10 194 272 1
58 Twiggy Trilonium Geoffe Teasdale 1.050 3 00:10:00 03:36:57 03:26:57 03:37:17 195 94 1
9000 JS9000 FRUMIOUS Frumious Bandersnatch Will Goodlet 1.050 1 00:00:00 03:27:04 03:27:04 03:37:25 196 97 1
5363 Dart 2up Genoa Cheshire Jeannette Heymans 1.080 5 00:20:00 03:41:29 03:21:29 03:37:31 197 69 9
59 L26 EASY BEAT Douglas Brake 0.915 2 00:10:00 04:08:03 03:58:03 03:37:48 198 232 14
60328 H14 Turbo No Name Gregam McQueen 1.062 5 00:20:00 03:45:20 03:25:20 03:37:58 199 88 3
2014 Halcat 1up Puddytat Mark  Tintinger 0.996 5 00:20:00 03:59:08 03:39:08 03:38:16 200 145 2
54316 H16 Katdewaales Pieter De Waal 1.114 5 00:20:00 03:36:34 03:16:34 03:38:52 201 46 12
94 Astove 30 Dr Ballantyne Peter Henry Rossi 0.840 2 00:10:00 04:30:42 04:20:42 03:38:59 202 267 2
106121 H16 Lightning Jordan McQueen 1.114 5 00:20:00 03:37:07 03:17:07 03:39:29 203 50 13
1796 Halcat 1up N/A Alex Bals 0.996 5 00:20:00 04:00:21 03:40:21 03:39:29 204 154 3
5177 Dart 2up Genoa Fun-A-Galore Grant Reynolds 1.080 5 00:20:00 03:43:33 03:23:33 03:39:45 205 79 10
2463 Hobie Tiger No Name Rudolph Sonnekus 1.275 5 00:20:00 03:12:26 02:52:26 03:39:51 206 7 2
6314 Dart 2up Genoa Accelerando Erik  Pretorius 1.080